AWC955 SBRJ-SBCY
Flight info
| Callsign | AWC955 |
|---|---|
| Flight time | 2h 20m |
| Altitude | 36000 |
| Route | MUDKA UM409 MIMIP UZ8 MABMA |
| Aircraft | A320/M-SDE3FGHIRWY/LB1 |
Departure
| Time | 2026-05-03 22:16 |
|---|---|
| Airport | Santos Dumont Airport (SBRJ) |
Arrival
| Time | 2026-05-04 00:37 |
|---|---|
| Airport | Várzea Grande–Marechal Rondon International Airport (SBCY) |
| Time | Latitude | Longitude | Altitude | Speed | Heading |
|---|---|---|---|---|---|
| 2026-05-03 21:53 | -22.91209 | -43.16584 | 22 ft | 0 kts | 266° |
| 2026-05-03 22:11 | -22.91208 | -43.16567 | 22 ft | 4 kts | 267° |
| 2026-05-03 22:11 | -22.91206 | -43.16538 | 26 ft | 4 kts | 258° |
| 2026-05-03 22:11 | -22.91198 | -43.16515 | 25 ft | 4 kts | 191° |
| 2026-05-03 22:12 | -22.91174 | -43.16516 | 24 ft | 3 kts | 176° |
| 2026-05-03 22:12 | -22.91170 | -43.16516 | 24 ft | 0 kts | 176° |
| 2026-05-03 22:13 | -22.91177 | -43.16515 | 25 ft | 4 kts | 176° |
| 2026-05-03 22:14 | -22.91252 | -43.16510 | 22 ft | 15 kts | 176° |
| 2026-05-03 22:14 | -22.91370 | -43.16503 | 22 ft | 19 kts | 176° |
| 2026-05-03 22:14 | -22.91465 | -43.16440 | 22 ft | 9 kts | 133° |
| 2026-05-03 22:14 | -22.91522 | -43.16378 | 21 ft | 14 kts | 140° |
| 2026-05-03 22:15 | -22.91608 | -43.16295 | 20 ft | 14 kts | 130° |
| 2026-05-03 22:15 | -22.91579 | -43.16248 | 20 ft | 2 kts | 0° |
| 2026-05-03 22:15 | -22.91566 | -43.16249 | 20 ft | 11 kts | 357° |
| 2026-05-03 22:15 | -22.91068 | -43.16281 | 24 ft | 124 kts | 356° |
| 2026-05-03 22:16 | -22.90200 | -43.16363 | 572 ft | 147 kts | 353° |
| 2026-05-03 22:16 | -22.89201 | -43.16452 | 1467 ft | 162 kts | 5° |
| 2026-05-03 22:16 | -22.88148 | -43.15845 | 2147 ft | 198 kts | 51° |
| 2026-05-03 22:16 | -22.87643 | -43.14386 | 2124 ft | 219 kts | 89° |
| 2026-05-03 22:17 | -22.87721 | -43.12730 | 2035 ft | 219 kts | 99° |
| 2026-05-03 22:17 | -22.87876 | -43.11503 | 2025 ft | 219 kts | 100° |
| 2026-05-03 22:17 | -22.87940 | -43.10994 | 2032 ft | 219 kts | 100° |
| 2026-05-03 22:18 | -22.88127 | -43.09356 | 2013 ft | 219 kts | 98° |
| 2026-05-03 22:18 | -22.88269 | -43.07691 | 2272 ft | 225 kts | 97° |
| 2026-05-03 22:18 | -22.88367 | -43.06041 | 3350 ft | 224 kts | 96° |
| 2026-05-03 22:18 | -22.88433 | -43.04338 | 4420 ft | 228 kts | 94° |
| 2026-05-03 22:19 | -22.88405 | -43.02577 | 4964 ft | 236 kts | 90° |
| 2026-05-03 22:19 | -22.88303 | -43.00828 | 5504 ft | 237 kts | 88° |
| 2026-05-03 22:19 | -22.88168 | -42.99012 | 6606 ft | 239 kts | 87° |
| 2026-05-03 22:19 | -22.88027 | -42.97198 | 7558 ft | 242 kts | 86° |
| 2026-05-03 22:20 | -22.87886 | -42.95363 | 8522 ft | 247 kts | 86° |
| 2026-05-03 22:20 | -22.87745 | -42.93490 | 9494 ft | 251 kts | 86° |
| 2026-05-03 22:20 | -22.87606 | -42.91605 | 10424 ft | 256 kts | 86° |
| 2026-05-03 22:20 | -22.87465 | -42.89664 | 11289 ft | 260 kts | 86° |
| 2026-05-03 22:21 | -22.87307 | -42.87696 | 12169 ft | 265 kts | 82° |
| 2026-05-03 22:21 | -22.86661 | -42.85826 | 13011 ft | 270 kts | 54° |
| 2026-05-03 22:21 | -22.85292 | -42.84446 | 13804 ft | 277 kts | 28° |
| 2026-05-03 22:21 | -22.83621 | -42.83876 | 14123 ft | 293 kts | 1° |
| 2026-05-03 22:22 | -22.81526 | -42.84093 | 14423 ft | 315 kts | 348° |
| 2026-05-03 22:22 | -22.79279 | -42.84487 | 14662 ft | 338 kts | 348° |
| 2026-05-03 22:22 | -22.76873 | -42.84909 | 14842 ft | 362 kts | 349° |
| 2026-05-03 22:22 | -22.74332 | -42.85330 | 15247 ft | 375 kts | 349° |
| 2026-05-03 22:23 | -22.71723 | -42.85741 | 15875 ft | 381 kts | 349° |
| 2026-05-03 22:23 | -22.69094 | -42.86153 | 16550 ft | 384 kts | 348° |
| 2026-05-03 22:23 | -22.66437 | -42.86583 | 17240 ft | 388 kts | 347° |
| 2026-05-03 22:23 | -22.63756 | -42.87028 | 17946 ft | 391 kts | 347° |
| 2026-05-03 22:24 | -22.61052 | -42.87481 | 18628 ft | 395 kts | 347° |
| 2026-05-03 22:24 | -22.58323 | -42.87940 | 19248 ft | 398 kts | 346° |
| 2026-05-03 22:24 | -22.55576 | -42.88400 | 19890 ft | 401 kts | 346° |
| 2026-05-03 22:24 | -22.52804 | -42.88861 | 20539 ft | 404 kts | 346° |
| 2026-05-03 22:25 | -22.50010 | -42.89325 | 21212 ft | 408 kts | 346° |
| 2026-05-03 22:25 | -22.47193 | -42.89793 | 21858 ft | 411 kts | 346° |
| 2026-05-03 22:25 | -22.44364 | -42.90263 | 22480 ft | 414 kts | 346° |
| 2026-05-03 22:25 | -22.41505 | -42.90735 | 23093 ft | 417 kts | 346° |
| 2026-05-03 22:26 | -22.38667 | -42.91203 | 23663 ft | 420 kts | 346° |
| 2026-05-03 22:26 | -22.35760 | -42.91683 | 24163 ft | 424 kts | 346° |
| 2026-05-03 22:26 | -22.32829 | -42.92167 | 24623 ft | 426 kts | 346° |
| 2026-05-03 22:26 | -22.29886 | -42.92654 | 25084 ft | 429 kts | 346° |
| 2026-05-03 22:27 | -22.26931 | -42.93142 | 25542 ft | 431 kts | 346° |
| 2026-05-03 22:27 | -22.23952 | -42.93633 | 25997 ft | 433 kts | 346° |
| 2026-05-03 22:27 | -22.20979 | -42.94126 | 26434 ft | 435 kts | 345° |
| 2026-05-03 22:27 | -22.18069 | -42.94947 | 26848 ft | 430 kts | 334° |
| 2026-05-03 22:28 | -22.15417 | -42.96313 | 27265 ft | 426 kts | 324° |
| 2026-05-03 22:28 | -22.13047 | -42.98192 | 27676 ft | 422 kts | 314° |
| 2026-05-03 22:28 | -22.10975 | -43.00436 | 28110 ft | 422 kts | 310° |
| 2026-05-03 22:28 | -22.08933 | -43.02719 | 28551 ft | 424 kts | 310° |
| 2026-05-03 22:29 | -22.06873 | -43.05012 | 28979 ft | 427 kts | 310° |
| 2026-05-03 22:29 | -22.04808 | -43.07304 | 29384 ft | 429 kts | 310° |
| 2026-05-03 22:29 | -22.02712 | -43.09624 | 29774 ft | 431 kts | 310° |
| 2026-05-03 22:29 | -22.00615 | -43.11950 | 30180 ft | 434 kts | 310° |
| 2026-05-03 22:30 | -21.98512 | -43.14286 | 30504 ft | 436 kts | 310° |
| 2026-05-03 22:30 | -21.96396 | -43.16637 | 30802 ft | 438 kts | 310° |
| 2026-05-03 22:30 | -21.94292 | -43.18975 | 31134 ft | 438 kts | 310° |
| 2026-05-03 22:30 | -21.92173 | -43.21323 | 31556 ft | 437 kts | 310° |
| 2026-05-03 22:31 | -21.90052 | -43.23667 | 32007 ft | 435 kts | 310° |
| 2026-05-03 22:31 | -21.87943 | -43.25997 | 32485 ft | 433 kts | 310° |
| 2026-05-03 22:31 | -21.85852 | -43.28317 | 32954 ft | 432 kts | 310° |
| 2026-05-03 22:31 | -21.83791 | -43.30609 | 33429 ft | 430 kts | 310° |
| 2026-05-03 22:32 | -21.81688 | -43.32943 | 33934 ft | 429 kts | 310° |
| 2026-05-03 22:32 | -21.79637 | -43.35211 | 34406 ft | 427 kts | 310° |
| 2026-05-03 22:32 | -21.77568 | -43.37492 | 34845 ft | 426 kts | 310° |
| 2026-05-03 22:32 | -21.75470 | -43.39751 | 35283 ft | 426 kts | 312° |
| 2026-05-03 22:33 | -21.73317 | -43.41932 | 35706 ft | 426 kts | 313° |
| 2026-05-03 22:33 | -21.71121 | -43.44066 | 36084 ft | 426 kts | 314° |
| 2026-05-03 22:33 | -21.68902 | -43.46185 | 36203 ft | 426 kts | 314° |
| 2026-05-03 22:34 | -21.64471 | -43.50423 | 36217 ft | 425 kts | 314° |
| 2026-05-03 22:34 | -21.60080 | -43.54696 | 36215 ft | 426 kts | 313° |
| 2026-05-03 22:35 | -21.55419 | -43.58645 | 36217 ft | 433 kts | 325° |
| 2026-05-03 22:35 | -21.50185 | -43.61889 | 36213 ft | 434 kts | 325° |
| 2026-05-03 22:36 | -21.44952 | -43.65127 | 36209 ft | 434 kts | 325° |
| 2026-05-03 22:36 | -21.39714 | -43.68369 | 36204 ft | 435 kts | 325° |
| 2026-05-03 22:37 | -21.34467 | -43.71617 | 36208 ft | 436 kts | 325° |
| 2026-05-03 22:37 | -21.29252 | -43.74842 | 36199 ft | 436 kts | 325° |
| 2026-05-03 22:38 | -21.24001 | -43.78111 | 36203 ft | 436 kts | 324° |
| 2026-05-03 22:38 | -21.18824 | -43.81492 | 36194 ft | 436 kts | 324° |
| 2026-05-03 22:39 | -21.13664 | -43.84905 | 36197 ft | 436 kts | 324° |
| 2026-05-03 22:39 | -21.08473 | -43.88302 | 36198 ft | 437 kts | 324° |
| 2026-05-03 22:40 | -21.03273 | -43.91680 | 36196 ft | 438 kts | 324° |
| 2026-05-03 22:40 | -20.98062 | -43.95061 | 36198 ft | 438 kts | 324° |
| 2026-05-03 22:41 | -20.92843 | -43.98450 | 36197 ft | 438 kts | 324° |
| 2026-05-03 22:41 | -20.87631 | -44.01834 | 36194 ft | 438 kts | 324° |
| 2026-05-03 22:42 | -20.82450 | -44.05201 | 36195 ft | 439 kts | 324° |
| 2026-05-03 22:42 | -20.77228 | -44.08578 | 36189 ft | 439 kts | 325° |
| 2026-05-03 22:43 | -20.72008 | -44.11966 | 36185 ft | 439 kts | 324° |
| 2026-05-03 22:43 | -20.66790 | -44.15373 | 36187 ft | 440 kts | 324° |
| 2026-05-03 22:44 | -20.61573 | -44.18780 | 36174 ft | 440 kts | 325° |
| 2026-05-03 22:44 | -20.56325 | -44.22161 | 36171 ft | 441 kts | 325° |
| 2026-05-03 22:45 | -20.51062 | -44.25532 | 36167 ft | 441 kts | 325° |
| 2026-05-03 22:45 | -20.45797 | -44.28906 | 36161 ft | 442 kts | 325° |
| 2026-05-03 22:46 | -20.40530 | -44.32289 | 36155 ft | 442 kts | 325° |
| 2026-05-03 22:46 | -20.35261 | -44.35678 | 36147 ft | 442 kts | 325° |
| 2026-05-03 22:47 | -20.30029 | -44.39047 | 36148 ft | 443 kts | 325° |
| 2026-05-03 22:47 | -20.24760 | -44.42439 | 36136 ft | 443 kts | 326° |
| 2026-05-03 22:48 | -20.19483 | -44.45823 | 36132 ft | 443 kts | 326° |
| 2026-05-03 22:48 | -20.14198 | -44.49212 | 36127 ft | 443 kts | 326° |
| 2026-05-03 22:49 | -20.08914 | -44.52598 | 36124 ft | 444 kts | 326° |
| 2026-05-03 22:49 | -20.04514 | -44.55415 | 36120 ft | 444 kts | 326° |
| 2026-05-03 22:50 | -19.99217 | -44.58805 | 36113 ft | 445 kts | 326° |
| 2026-05-03 22:50 | -19.93022 | -44.62768 | 36106 ft | 445 kts | 326° |
| 2026-05-03 22:51 | -19.87711 | -44.66153 | 36100 ft | 445 kts | 326° |
| 2026-05-03 22:51 | -19.82396 | -44.69548 | 36097 ft | 446 kts | 326° |
| 2026-05-03 22:52 | -19.77086 | -44.72948 | 36091 ft | 446 kts | 326° |
| 2026-05-03 22:52 | -19.71804 | -44.76324 | 36088 ft | 446 kts | 326° |
| 2026-05-03 22:53 | -19.66470 | -44.79714 | 36085 ft | 447 kts | 326° |
| 2026-05-03 22:53 | -19.61141 | -44.83103 | 36079 ft | 447 kts | 326° |
| 2026-05-03 22:54 | -19.56744 | -44.86049 | 36078 ft | 445 kts | 319° |
| 2026-05-03 22:54 | -19.52674 | -44.90839 | 36074 ft | 440 kts | 300° |
| 2026-05-03 22:55 | -19.50276 | -44.96756 | 36070 ft | 438 kts | 288° |
| 2026-05-03 22:55 | -19.48254 | -45.02856 | 36070 ft | 439 kts | 289° |
| 2026-05-03 22:56 | -19.46224 | -45.08958 | 36065 ft | 439 kts | 289° |
| 2026-05-03 22:56 | -19.44187 | -45.15068 | 36068 ft | 440 kts | 289° |
| 2026-05-03 22:57 | -19.42141 | -45.21180 | 36069 ft | 440 kts | 289° |
| 2026-05-03 22:57 | -19.40097 | -45.27288 | 36067 ft | 441 kts | 289° |
| 2026-05-03 22:58 | -19.38045 | -45.33410 | 36068 ft | 441 kts | 289° |
| 2026-05-03 22:58 | -19.35992 | -45.39535 | 36072 ft | 441 kts | 289° |
| 2026-05-03 22:59 | -19.33933 | -45.45661 | 36074 ft | 442 kts | 289° |
| 2026-05-03 22:59 | -19.31888 | -45.51750 | 36077 ft | 442 kts | 289° |
| 2026-05-03 23:00 | -19.29828 | -45.57889 | 36078 ft | 442 kts | 289° |
| 2026-05-03 23:00 | -19.27760 | -45.64018 | 36080 ft | 442 kts | 289° |
| 2026-05-03 23:01 | -19.25684 | -45.70147 | 36085 ft | 443 kts | 289° |
| 2026-05-03 23:01 | -19.23601 | -45.76289 | 36087 ft | 443 kts | 289° |
| 2026-05-03 23:02 | -19.21514 | -45.82434 | 36095 ft | 444 kts | 289° |
| 2026-05-03 23:02 | -19.19435 | -45.88584 | 36104 ft | 444 kts | 289° |
| 2026-05-03 23:03 | -19.17345 | -45.94739 | 36109 ft | 445 kts | 289° |
| 2026-05-03 23:03 | -19.15252 | -46.00897 | 36114 ft | 445 kts | 289° |
| 2026-05-03 23:04 | -19.13180 | -46.07008 | 36109 ft | 444 kts | 289° |
| 2026-05-03 23:04 | -19.11090 | -46.13155 | 36108 ft | 444 kts | 289° |
| 2026-05-03 23:05 | -19.08990 | -46.19308 | 36107 ft | 445 kts | 289° |
| 2026-05-03 23:05 | -19.06897 | -46.25454 | 36112 ft | 445 kts | 289° |
| 2026-05-03 23:06 | -19.04801 | -46.31605 | 36114 ft | 445 kts | 289° |
| 2026-05-03 23:06 | -19.02692 | -46.37759 | 36117 ft | 445 kts | 289° |
| 2026-05-03 23:07 | -19.00582 | -46.43918 | 36123 ft | 445 kts | 289° |
| 2026-05-03 23:07 | -18.98478 | -46.50066 | 36121 ft | 445 kts | 289° |
| 2026-05-03 23:08 | -18.96372 | -46.56210 | 36123 ft | 445 kts | 289° |
| 2026-05-03 23:08 | -18.94267 | -46.62345 | 36122 ft | 445 kts | 289° |
| 2026-05-03 23:09 | -18.92218 | -46.68466 | 36120 ft | 444 kts | 288° |
| 2026-05-03 23:09 | -18.90269 | -46.74655 | 36117 ft | 444 kts | 288° |
| 2026-05-03 23:10 | -18.88330 | -46.80852 | 36116 ft | 445 kts | 288° |
| 2026-05-03 23:10 | -18.86363 | -46.87044 | 36114 ft | 445 kts | 288° |
| 2026-05-03 23:11 | -18.84386 | -46.93233 | 36119 ft | 445 kts | 288° |
| 2026-05-03 23:11 | -18.82414 | -46.99375 | 36115 ft | 431 kts | 287° |
| 2026-05-03 23:12 | -18.80519 | -47.05284 | 36104 ft | 422 kts | 287° |
| 2026-05-03 23:12 | -18.78641 | -47.11138 | 36106 ft | 421 kts | 287° |
| 2026-05-03 23:13 | -18.76760 | -47.16995 | 36101 ft | 421 kts | 287° |
| 2026-05-03 23:13 | -18.74880 | -47.22847 | 36097 ft | 421 kts | 287° |
| 2026-05-03 23:14 | -18.73006 | -47.28658 | 36099 ft | 421 kts | 287° |
| 2026-05-03 23:14 | -18.71120 | -47.34513 | 36092 ft | 421 kts | 287° |
| 2026-05-03 23:15 | -18.69229 | -47.40362 | 36089 ft | 421 kts | 287° |
| 2026-05-03 23:15 | -18.67338 | -47.46213 | 36086 ft | 421 kts | 287° |
| 2026-05-03 23:16 | -18.65453 | -47.52069 | 36083 ft | 422 kts | 287° |
| 2026-05-03 23:16 | -18.63560 | -47.57920 | 36075 ft | 422 kts | 287° |
| 2026-05-03 23:17 | -18.61661 | -47.63769 | 36074 ft | 422 kts | 287° |
| 2026-05-03 23:17 | -18.59755 | -47.69627 | 36068 ft | 422 kts | 287° |
| 2026-05-03 23:18 | -18.57863 | -47.75444 | 36066 ft | 423 kts | 287° |
| 2026-05-03 23:18 | -18.55956 | -47.81306 | 36062 ft | 423 kts | 287° |
| 2026-05-03 23:19 | -18.54048 | -47.87167 | 36056 ft | 423 kts | 287° |
| 2026-05-03 23:19 | -18.52127 | -47.93039 | 36059 ft | 424 kts | 287° |
| 2026-05-03 23:20 | -18.50206 | -47.98909 | 36059 ft | 424 kts | 287° |
| 2026-05-03 23:20 | -18.48286 | -48.04786 | 36061 ft | 424 kts | 287° |
| 2026-05-03 23:21 | -18.46361 | -48.10665 | 36063 ft | 425 kts | 287° |
| 2026-05-03 23:21 | -18.44432 | -48.16556 | 36064 ft | 425 kts | 287° |
| 2026-05-03 23:22 | -18.41540 | -48.25372 | 36062 ft | 425 kts | 287° |
| 2026-05-03 23:22 | -18.39604 | -48.31257 | 36066 ft | 425 kts | 287° |
| 2026-05-03 23:23 | -18.37667 | -48.37149 | 36065 ft | 426 kts | 287° |
| 2026-05-03 23:23 | -18.35738 | -48.43042 | 36062 ft | 426 kts | 287° |
| 2026-05-03 23:24 | -18.33801 | -48.48920 | 36056 ft | 426 kts | 287° |
| 2026-05-03 23:24 | -18.31858 | -48.54813 | 36049 ft | 426 kts | 287° |
| 2026-05-03 23:25 | -18.29926 | -48.60659 | 36049 ft | 426 kts | 287° |
| 2026-05-03 23:25 | -18.27978 | -48.66548 | 36045 ft | 426 kts | 287° |
| 2026-05-03 23:26 | -18.26025 | -48.72440 | 36045 ft | 427 kts | 287° |
| 2026-05-03 23:26 | -18.24069 | -48.78337 | 36046 ft | 427 kts | 287° |
| 2026-05-03 23:27 | -18.22116 | -48.84233 | 36045 ft | 427 kts | 287° |
| 2026-05-03 23:27 | -18.20153 | -48.90140 | 36041 ft | 427 kts | 287° |
| 2026-05-03 23:28 | -18.18195 | -48.96037 | 36039 ft | 428 kts | 287° |
| 2026-05-03 23:28 | -18.16223 | -49.01944 | 36042 ft | 428 kts | 288° |
| 2026-05-03 23:29 | -18.14263 | -49.07810 | 36045 ft | 429 kts | 287° |
| 2026-05-03 23:29 | -18.12289 | -49.13729 | 36049 ft | 429 kts | 288° |
| 2026-05-03 23:30 | -18.10302 | -49.19645 | 36050 ft | 429 kts | 288° |
| 2026-05-03 23:30 | -18.08314 | -49.25562 | 36052 ft | 429 kts | 288° |
| 2026-05-03 23:31 | -18.06329 | -49.31485 | 36056 ft | 429 kts | 288° |
| 2026-05-03 23:31 | -18.04350 | -49.37404 | 36052 ft | 430 kts | 288° |
| 2026-05-03 23:32 | -18.02372 | -49.43325 | 36053 ft | 430 kts | 288° |
| 2026-05-03 23:32 | -18.00375 | -49.49252 | 36046 ft | 430 kts | 288° |
| 2026-05-03 23:33 | -17.98375 | -49.55170 | 36047 ft | 430 kts | 288° |
| 2026-05-03 23:33 | -17.96383 | -49.61097 | 36041 ft | 430 kts | 288° |
| 2026-05-03 23:34 | -17.94386 | -49.67020 | 36041 ft | 430 kts | 288° |
| 2026-05-03 23:34 | -17.92401 | -49.72902 | 36039 ft | 430 kts | 288° |
| 2026-05-03 23:35 | -17.90406 | -49.78828 | 36038 ft | 431 kts | 288° |
| 2026-05-03 23:35 | -17.88405 | -49.84756 | 36035 ft | 431 kts | 288° |
| 2026-05-03 23:36 | -17.86393 | -49.90677 | 36031 ft | 431 kts | 288° |
| 2026-05-03 23:36 | -17.84370 | -49.96599 | 36033 ft | 431 kts | 288° |
| 2026-05-03 23:37 | -17.82350 | -50.02522 | 36028 ft | 431 kts | 288° |
| 2026-05-03 23:37 | -17.80341 | -50.08458 | 36029 ft | 431 kts | 288° |
| 2026-05-03 23:38 | -17.78335 | -50.14385 | 36028 ft | 431 kts | 288° |
| 2026-05-03 23:38 | -17.76279 | -50.20302 | 36027 ft | 432 kts | 288° |
| 2026-05-03 23:39 | -17.74180 | -50.26197 | 36027 ft | 432 kts | 289° |
| 2026-05-03 23:39 | -17.72076 | -50.32101 | 36029 ft | 432 kts | 289° |
| 2026-05-03 23:40 | -17.69987 | -50.38010 | 36030 ft | 432 kts | 288° |
| 2026-05-03 23:40 | -17.67912 | -50.43883 | 36033 ft | 432 kts | 288° |
| 2026-05-03 23:41 | -17.65822 | -50.49793 | 36035 ft | 432 kts | 288° |
| 2026-05-03 23:41 | -17.63731 | -50.55705 | 36041 ft | 432 kts | 288° |
| 2026-05-03 23:42 | -17.61630 | -50.61613 | 36039 ft | 432 kts | 289° |
| 2026-05-03 23:42 | -17.59524 | -50.67516 | 36043 ft | 432 kts | 289° |
| 2026-05-03 23:43 | -17.57426 | -50.73427 | 36045 ft | 432 kts | 289° |
| 2026-05-03 23:43 | -17.55327 | -50.79331 | 36047 ft | 433 kts | 289° |
| 2026-05-03 23:44 | -17.53225 | -50.85230 | 36047 ft | 433 kts | 289° |
| 2026-05-03 23:44 | -17.51118 | -50.91140 | 36053 ft | 433 kts | 289° |
| 2026-05-03 23:45 | -17.49010 | -50.97044 | 36054 ft | 433 kts | 289° |
| 2026-05-03 23:45 | -17.46909 | -51.02906 | 36051 ft | 433 kts | 289° |
| 2026-05-03 23:46 | -17.44790 | -51.08808 | 36056 ft | 433 kts | 289° |
| 2026-05-03 23:46 | -17.42675 | -51.14707 | 36058 ft | 433 kts | 289° |
| 2026-05-03 23:47 | -17.40563 | -51.20618 | 36063 ft | 433 kts | 289° |
| 2026-05-03 23:47 | -17.38442 | -51.26517 | 36063 ft | 433 kts | 289° |
| 2026-05-03 23:48 | -17.36312 | -51.32421 | 36062 ft | 433 kts | 289° |
| 2026-05-03 23:48 | -17.34171 | -51.38321 | 36060 ft | 434 kts | 289° |
| 2026-05-03 23:49 | -17.32025 | -51.44219 | 36063 ft | 434 kts | 289° |
| 2026-05-03 23:49 | -17.29882 | -51.50121 | 36062 ft | 434 kts | 289° |
| 2026-05-03 23:50 | -17.28097 | -51.55026 | 36062 ft | 434 kts | 289° |
| 2026-05-03 23:50 | -17.25603 | -51.61885 | 36056 ft | 434 kts | 289° |
| 2026-05-03 23:51 | -17.23457 | -51.67783 | 36055 ft | 434 kts | 289° |
| 2026-05-03 23:51 | -17.21298 | -51.73688 | 36056 ft | 434 kts | 289° |
| 2026-05-03 23:52 | -17.19146 | -51.79591 | 36052 ft | 435 kts | 289° |
| 2026-05-03 23:52 | -17.17353 | -51.84495 | 36052 ft | 435 kts | 289° |
| 2026-05-03 23:53 | -17.15194 | -51.90406 | 36048 ft | 435 kts | 289° |
| 2026-05-03 23:53 | -17.13037 | -51.96312 | 36045 ft | 435 kts | 289° |
| 2026-05-03 23:54 | -17.10863 | -52.02219 | 36041 ft | 435 kts | 289° |
| 2026-05-03 23:54 | -17.08699 | -52.08120 | 36039 ft | 435 kts | 289° |
| 2026-05-03 23:55 | -17.06529 | -52.14033 | 36034 ft | 435 kts | 289° |
| 2026-05-03 23:55 | -17.04352 | -52.19940 | 36035 ft | 436 kts | 289° |
| 2026-05-03 23:56 | -17.02177 | -52.25846 | 36021 ft | 436 kts | 289° |
| 2026-05-03 23:56 | -17.00001 | -52.31753 | 36023 ft | 436 kts | 289° |
| 2026-05-03 23:57 | -16.97839 | -52.37619 | 36016 ft | 436 kts | 289° |
| 2026-05-03 23:57 | -16.95651 | -52.43530 | 36016 ft | 436 kts | 289° |
| 2026-05-03 23:58 | -16.93469 | -52.49435 | 36016 ft | 436 kts | 289° |
| 2026-05-03 23:58 | -16.91284 | -52.55353 | 36012 ft | 436 kts | 289° |
| 2026-05-03 23:59 | -16.89091 | -52.61256 | 36007 ft | 436 kts | 289° |
| 2026-05-03 23:59 | -16.86898 | -52.67174 | 36004 ft | 437 kts | 289° |
| 2026-05-04 00:00 | -16.84710 | -52.73082 | 36004 ft | 437 kts | 289° |
| 2026-05-04 00:00 | -16.82511 | -52.79000 | 36004 ft | 437 kts | 289° |
| 2026-05-04 00:01 | -16.80309 | -52.84907 | 36010 ft | 437 kts | 289° |
| 2026-05-04 00:01 | -16.78100 | -52.90824 | 36010 ft | 437 kts | 289° |
| 2026-05-04 00:02 | -16.75917 | -52.96700 | 36007 ft | 437 kts | 289° |
| 2026-05-04 00:02 | -16.73712 | -53.02617 | 36011 ft | 438 kts | 289° |
| 2026-05-04 00:03 | -16.71505 | -53.08534 | 36007 ft | 438 kts | 289° |
| 2026-05-04 00:03 | -16.69976 | -53.14643 | 36011 ft | 436 kts | 281° |
| 2026-05-04 00:04 | -16.68718 | -53.20824 | 36009 ft | 436 kts | 281° |
| 2026-05-04 00:04 | -16.67461 | -53.27007 | 36020 ft | 436 kts | 281° |
| 2026-05-04 00:05 | -16.66201 | -53.33180 | 36024 ft | 436 kts | 281° |
| 2026-05-04 00:05 | -16.64933 | -53.39362 | 36021 ft | 436 kts | 281° |
| 2026-05-04 00:06 | -16.63665 | -53.45542 | 36020 ft | 436 kts | 281° |
| 2026-05-04 00:06 | -16.62408 | -53.51685 | 36019 ft | 436 kts | 281° |
| 2026-05-04 00:07 | -16.61141 | -53.57861 | 36012 ft | 436 kts | 281° |
| 2026-05-04 00:07 | -16.59863 | -53.64047 | 36008 ft | 436 kts | 281° |
| 2026-05-04 00:08 | -16.58584 | -53.70221 | 36013 ft | 436 kts | 281° |
| 2026-05-04 00:08 | -16.57303 | -53.76403 | 36012 ft | 436 kts | 281° |
| 2026-05-04 00:09 | -16.56023 | -53.82574 | 36008 ft | 436 kts | 281° |
| 2026-05-04 00:09 | -16.54747 | -53.88759 | 35997 ft | 436 kts | 281° |
| 2026-05-04 00:10 | -16.53469 | -53.94937 | 35998 ft | 436 kts | 281° |
| 2026-05-04 00:10 | -16.52186 | -54.01114 | 35988 ft | 436 kts | 281° |
| 2026-05-04 00:11 | -16.50902 | -54.07258 | 35992 ft | 436 kts | 281° |
| 2026-05-04 00:11 | -16.49613 | -54.13440 | 35992 ft | 437 kts | 281° |
| 2026-05-04 00:12 | -16.48316 | -54.19618 | 35985 ft | 437 kts | 281° |
| 2026-05-04 00:12 | -16.47025 | -54.25804 | 35983 ft | 437 kts | 281° |
| 2026-05-04 00:13 | -16.45733 | -54.31980 | 35981 ft | 437 kts | 281° |
| 2026-05-04 00:13 | -16.44431 | -54.38170 | 35981 ft | 437 kts | 281° |
| 2026-05-04 00:14 | -16.43131 | -54.44353 | 35982 ft | 437 kts | 281° |
| 2026-05-04 00:14 | -16.41831 | -54.50537 | 35980 ft | 437 kts | 281° |
| 2026-05-04 00:15 | -16.40531 | -54.56724 | 35980 ft | 437 kts | 281° |
| 2026-05-04 00:15 | -16.39221 | -54.62917 | 35979 ft | 438 kts | 281° |
| 2026-05-04 00:16 | -16.37907 | -54.69101 | 35982 ft | 438 kts | 281° |
| 2026-05-04 00:16 | -16.36603 | -54.75255 | 35979 ft | 438 kts | 281° |
| 2026-05-04 00:17 | -16.35284 | -54.81442 | 35985 ft | 438 kts | 281° |
| 2026-05-04 00:17 | -16.33965 | -54.87632 | 35981 ft | 438 kts | 281° |
| 2026-05-04 00:18 | -16.32652 | -54.93827 | 35986 ft | 438 kts | 281° |
| 2026-05-04 00:18 | -16.31340 | -55.00016 | 35992 ft | 438 kts | 281° |
| 2026-05-04 00:19 | -16.30015 | -55.06206 | 35996 ft | 438 kts | 281° |
| 2026-05-04 00:19 | -16.28689 | -55.12387 | 35996 ft | 438 kts | 281° |
| 2026-05-04 00:20 | -16.27360 | -55.18586 | 35272 ft | 441 kts | 281° |
| 2026-05-04 00:20 | -16.26690 | -55.21712 | 33979 ft | 444 kts | 281° |
| 2026-05-04 00:20 | -16.25993 | -55.24865 | 32326 ft | 449 kts | 284° |
| 2026-05-04 00:21 | -16.24948 | -55.27920 | 31461 ft | 448 kts | 292° |
| 2026-05-04 00:21 | -16.23475 | -55.30809 | 30344 ft | 457 kts | 301° |
| 2026-05-04 00:21 | -16.21584 | -55.33492 | 29112 ft | 463 kts | 306° |
| 2026-05-04 00:21 | -16.19604 | -55.36150 | 27881 ft | 467 kts | 306° |
| 2026-05-04 00:22 | -16.17648 | -55.38773 | 27018 ft | 462 kts | 307° |
| 2026-05-04 00:22 | -16.15689 | -55.41400 | 26141 ft | 457 kts | 307° |
| 2026-05-04 00:22 | -16.13750 | -55.44010 | 25293 ft | 454 kts | 307° |
| 2026-05-04 00:22 | -16.11828 | -55.46597 | 24442 ft | 451 kts | 307° |
| 2026-05-04 00:23 | -16.09916 | -55.49174 | 23602 ft | 449 kts | 307° |
| 2026-05-04 00:23 | -16.08014 | -55.51739 | 22653 ft | 446 kts | 307° |
| 2026-05-04 00:23 | -16.06135 | -55.54271 | 21840 ft | 440 kts | 307° |
| 2026-05-04 00:23 | -16.04276 | -55.56772 | 21049 ft | 435 kts | 307° |
| 2026-05-04 00:24 | -16.02439 | -55.59239 | 20294 ft | 431 kts | 308° |
| 2026-05-04 00:24 | -16.00605 | -55.61705 | 19548 ft | 427 kts | 307° |
| 2026-05-04 00:24 | -15.98798 | -55.64138 | 18847 ft | 424 kts | 308° |
| 2026-05-04 00:24 | -15.96998 | -55.66559 | 18137 ft | 422 kts | 308° |
| 2026-05-04 00:25 | -15.95202 | -55.68971 | 17374 ft | 420 kts | 308° |
| 2026-05-04 00:25 | -15.93426 | -55.71355 | 16662 ft | 415 kts | 308° |
| 2026-05-04 00:25 | -15.91666 | -55.73716 | 15927 ft | 412 kts | 308° |
| 2026-05-04 00:25 | -15.89920 | -55.76053 | 15137 ft | 410 kts | 308° |
| 2026-05-04 00:26 | -15.88592 | -55.77831 | 14632 ft | 405 kts | 308° |
| 2026-05-04 00:26 | -15.86827 | -55.80185 | 13845 ft | 402 kts | 308° |
| 2026-05-04 00:26 | -15.85117 | -55.82471 | 12978 ft | 399 kts | 308° |
| 2026-05-04 00:26 | -15.83430 | -55.84731 | 12189 ft | 394 kts | 308° |
| 2026-05-04 00:27 | -15.81762 | -55.86970 | 11398 ft | 390 kts | 309° |
| 2026-05-04 00:27 | -15.80110 | -55.89189 | 10711 ft | 385 kts | 309° |
| 2026-05-04 00:27 | -15.78516 | -55.91331 | 10555 ft | 364 kts | 309° |
| 2026-05-04 00:27 | -15.76925 | -55.93273 | 10440 ft | 344 kts | 318° |
| 2026-05-04 00:28 | -15.75087 | -55.94750 | 10327 ft | 326 kts | 331° |
| 2026-05-04 00:28 | -15.73127 | -55.95826 | 10182 ft | 313 kts | 335° |
| 2026-05-04 00:28 | -15.71209 | -55.96842 | 9936 ft | 306 kts | 335° |
| 2026-05-04 00:28 | -15.69323 | -55.97846 | 9825 ft | 305 kts | 335° |
| 2026-05-04 00:29 | -15.67434 | -55.98853 | 9413 ft | 309 kts | 335° |
| 2026-05-04 00:29 | -15.65526 | -55.99871 | 9065 ft | 305 kts | 335° |
| 2026-05-04 00:29 | -15.63647 | -56.00873 | 8677 ft | 302 kts | 335° |
| 2026-05-04 00:29 | -15.61788 | -56.01864 | 8298 ft | 300 kts | 335° |
| 2026-05-04 00:30 | -15.59940 | -56.02850 | 7922 ft | 297 kts | 335° |
| 2026-05-04 00:30 | -15.58122 | -56.03821 | 7261 ft | 291 kts | 335° |
| 2026-05-04 00:30 | -15.56330 | -56.04776 | 6581 ft | 288 kts | 335° |
| 2026-05-04 00:30 | -15.54564 | -56.05713 | 5895 ft | 284 kts | 334° |
| 2026-05-04 00:31 | -15.52801 | -56.06646 | 4856 ft | 290 kts | 334° |
| 2026-05-04 00:31 | -15.51092 | -56.07833 | 3695 ft | 301 kts | 314° |
| 2026-05-04 00:31 | -15.49982 | -56.09637 | 3011 ft | 290 kts | 288° |
| 2026-05-04 00:31 | -15.49659 | -56.11561 | 2999 ft | 253 kts | 268° |
| 2026-05-04 00:32 | -15.49899 | -56.13166 | 2999 ft | 208 kts | 249° |
| 2026-05-04 00:32 | -15.50478 | -56.14409 | 2976 ft | 178 kts | 233° |
| 2026-05-04 00:32 | -15.51219 | -56.15304 | 2874 ft | 151 kts | 220° |
| 2026-05-04 00:32 | -15.52006 | -56.15928 | 2814 ft | 136 kts | 209° |
| 2026-05-04 00:33 | -15.52832 | -56.16357 | 2760 ft | 131 kts | 198° |
| 2026-05-04 00:33 | -15.54580 | -56.16704 | 2651 ft | 127 kts | 179° |
| 2026-05-04 00:33 | -15.55457 | -56.16636 | 2591 ft | 126 kts | 169° |
| 2026-05-04 00:34 | -15.56300 | -56.16410 | 2535 ft | 126 kts | 160° |
| 2026-05-04 00:34 | -15.57098 | -56.16035 | 2478 ft | 126 kts | 152° |
| 2026-05-04 00:34 | -15.57877 | -56.15618 | 2280 ft | 126 kts | 153° |
| 2026-05-04 00:34 | -15.58654 | -56.15205 | 2085 ft | 124 kts | 153° |
| 2026-05-04 00:35 | -15.59418 | -56.14797 | 1896 ft | 124 kts | 153° |
| 2026-05-04 00:35 | -15.60181 | -56.14390 | 1712 ft | 123 kts | 153° |
| 2026-05-04 00:35 | -15.60945 | -56.13986 | 1523 ft | 123 kts | 153° |
| 2026-05-04 00:35 | -15.61711 | -56.13580 | 1330 ft | 125 kts | 153° |
| 2026-05-04 00:36 | -15.62487 | -56.13158 | 1051 ft | 126 kts | 152° |
| 2026-05-04 00:36 | -15.63267 | -56.12740 | 890 ft | 127 kts | 153° |
| 2026-05-04 00:36 | -15.64040 | -56.12335 | 712 ft | 126 kts | 152° |
| 2026-05-04 00:36 | -15.64807 | -56.11930 | 597 ft | 115 kts | 153° |
| 2026-05-04 00:37 | -15.65280 | -56.11676 | 599 ft | 39 kts | 152° |
| 2026-05-04 00:37 | -15.65406 | -56.11609 | 599 ft | 9 kts | 153° |
| 2026-05-04 00:37 | -15.65455 | -56.11582 | 599 ft | 13 kts | 153° |
| 2026-05-04 00:37 | -15.65565 | -56.11525 | 598 ft | 22 kts | 153° |
| 2026-05-04 00:38 | -15.65733 | -56.11438 | 598 ft | 32 kts | 153° |
| 2026-05-04 00:38 | -15.65945 | -56.11323 | 597 ft | 36 kts | 152° |
| 2026-05-04 00:38 | -15.66174 | -56.11203 | 597 ft | 26 kts | 155° |
| 2026-05-04 00:38 | -15.66242 | -56.11239 | 597 ft | 15 kts | 246° |
| 2026-05-04 00:39 | -15.66203 | -56.11315 | 597 ft | 18 kts | 333° |
| 2026-05-04 00:39 | -15.66049 | -56.11398 | 597 ft | 31 kts | 333° |
| 2026-05-04 00:39 | -15.65835 | -56.11510 | 597 ft | 37 kts | 333° |
| 2026-05-04 00:39 | -15.65591 | -56.11638 | 597 ft | 41 kts | 333° |
| 2026-05-04 00:40 | -15.65331 | -56.11778 | 598 ft | 44 kts | 333° |
| 2026-05-04 00:40 | -15.65123 | -56.11889 | 597 ft | 26 kts | 333° |
| 2026-05-04 00:40 | -15.65048 | -56.11932 | 597 ft | 12 kts | 330° |
| 2026-05-04 00:40 | -15.65031 | -56.11955 | 597 ft | 3 kts | 248° |
| 2026-05-04 00:41 | -15.65043 | -56.11981 | 597 ft | 2 kts | 244° |
| 2026-05-04 00:41 | -15.65044 | -56.11984 | 597 ft | 0 kts | 243° |